createdAt,value
2024-04-30T00:00:26.222Z,17
2024-04-30T00:00:56.286Z,17
2024-04-30T00:01:27.243Z,17
2024-04-30T00:01:59.146Z,17
2024-04-30T00:02:29.194Z,17
2024-04-30T00:03:00.322Z,17
2024-04-30T00:03:31.284Z,17
2024-04-30T00:04:02.664Z,17
2024-04-30T00:04:33.949Z,17
2024-04-30T00:05:04.826Z,17
2024-04-30T00:05:35.592Z,17
2024-04-30T00:06:06.532Z,17
2024-04-30T00:06:37.573Z,17
2024-04-30T00:07:08.650Z,17
2024-04-30T00:07:39.559Z,17
2024-04-30T00:08:10.543Z,17
2024-04-30T00:08:41.766Z,17
2024-04-30T00:09:12.550Z,17
2024-04-30T00:09:43.583Z,17
2024-04-30T00:10:15.044Z,17
2024-04-30T00:10:46.438Z,17
2024-04-30T00:11:16.601Z,17
2024-04-30T00:11:47.526Z,17
2024-04-30T00:12:18.631Z,17
2024-04-30T00:12:49.537Z,17
2024-04-30T00:13:20.906Z,17
2024-04-30T00:13:51.609Z,17
2024-04-30T00:14:22.544Z,16
2024-04-30T00:14:53.558Z,17
2024-04-30T00:15:25.143Z,17
2024-04-30T00:15:55.574Z,17
2024-04-30T00:16:26.577Z,17
2024-04-30T00:16:57.545Z,17
2024-04-30T00:17:28.483Z,17
2024-04-30T00:17:59.628Z,17
2024-04-30T00:18:30.559Z,17
2024-04-30T00:19:02.034Z,17
2024-04-30T00:19:32.622Z,17
2024-04-30T00:20:03.774Z,17
2024-04-30T00:20:34.543Z,17
2024-04-30T00:21:05.557Z,17
2024-04-30T00:21:36.529Z,17
2024-04-30T00:22:07.917Z,17
2024-04-30T00:22:38.603Z,17
2024-04-30T00:23:09.524Z,17
2024-04-30T00:23:40.509Z,17
2024-04-30T00:24:11.821Z,17
2024-04-30T00:24:42.569Z,17
2024-04-30T00:25:14.319Z,17
2024-04-30T00:25:44.499Z,17
2024-04-30T00:26:15.522Z,17
2024-04-30T00:26:46.472Z,17
2024-04-30T00:27:17.524Z,17
2024-04-30T00:27:48.541Z,17
2024-04-30T00:28:19.624Z,17
2024-04-30T00:28:50.542Z,17
2024-04-30T00:29:21.656Z,17
2024-04-30T00:29:52.581Z,17
2024-04-30T00:30:24.292Z,17
2024-04-30T00:30:54.896Z,17
2024-04-30T00:31:25.683Z,17
2024-04-30T00:31:56.591Z,17
2024-04-30T00:32:27.591Z,17
2024-04-30T00:32:58.560Z,17
2024-04-30T00:33:30.538Z,17
2024-04-30T00:34:00.702Z,17
2024-04-30T00:34:31.771Z,17
2024-04-30T00:35:02.713Z,17
2024-04-30T00:35:33.738Z,17
2024-04-30T00:36:04.604Z,17
2024-04-30T00:36:35.496Z,17
2024-04-30T00:37:06.662Z,17
2024-04-30T00:37:37.519Z,17
2024-04-30T00:38:08.566Z,17
2024-04-30T00:38:39.544Z,17
2024-04-30T00:39:10.508Z,17
2024-04-30T00:39:41.884Z,17
2024-04-30T00:40:13.012Z,17
2024-04-30T00:40:43.778Z,17
2024-04-30T00:41:14.501Z,17
2024-04-30T00:41:45.590Z,17
2024-04-30T00:42:17.063Z,17
2024-04-30T00:42:47.554Z,17
2024-04-30T00:43:18.528Z,17
2024-04-30T00:43:49.539Z,17
2024-04-30T00:44:20.536Z,17
2024-04-30T00:44:51.574Z,17
2024-04-30T00:45:23.190Z,17
2024-04-30T00:45:53.657Z,17
2024-04-30T00:46:24.580Z,17
2024-04-30T00:46:55.534Z,17
2024-04-30T00:47:26.741Z,17
2024-04-30T00:47:57.572Z,17
2024-04-30T00:48:28.970Z,17
2024-04-30T00:48:59.729Z,17
2024-04-30T00:49:30.643Z,17
2024-04-30T00:50:01.715Z,17
2024-04-30T00:50:32.524Z,17
2024-04-30T00:51:03.605Z,17
2024-04-30T00:51:34.555Z,17
2024-04-30T00:52:05.608Z,17
2024-04-30T00:52:36.900Z,17
2024-04-30T00:53:07.577Z,17
2024-04-30T00:53:38.532Z,17
2024-04-30T00:54:09.541Z,17
2024-04-30T00:54:40.584Z,17
2024-04-30T00:55:12.023Z,17
2024-04-30T00:55:43.335Z,17
2024-04-30T00:56:13.550Z,17
2024-04-30T00:56:44.530Z,17
2024-04-30T00:57:15.906Z,17
2024-04-30T00:57:46.754Z,17
2024-04-30T00:58:17.594Z,17
2024-04-30T00:58:48.538Z,17
2024-04-30T00:59:19.566Z,17
2024-04-30T00:59:50.587Z,17
2024-04-30T01:00:22.371Z,17
2024-04-30T01:00:52.697Z,17
2024-04-30T01:01:23.679Z,17
2024-04-30T01:01:54.674Z,17
2024-04-30T01:02:25.707Z,17
2024-04-30T01:02:57.115Z,17
2024-04-30T01:03:27.633Z,17
2024-04-30T01:03:57.810Z,17
2024-04-30T01:04:28.933Z,17
2024-04-30T01:05:01.341Z,17
2024-04-30T01:05:31.176Z,17
2024-04-30T01:06:02.381Z,17
2024-04-30T01:06:32.943Z,17
2024-04-30T01:07:03.985Z,17
2024-04-30T01:07:34.991Z,17
2024-04-30T01:08:05.917Z,17
2024-04-30T01:08:36.871Z,17
2024-04-30T01:09:07.820Z,17
2024-04-30T01:09:38.914Z,17
2024-04-30T01:10:10.154Z,17
2024-04-30T01:10:40.983Z,17
2024-04-30T01:11:11.928Z,17
2024-04-30T01:11:42.873Z,17
2024-04-30T01:12:13.913Z,17
2024-04-30T01:12:44.862Z,17
2024-04-30T01:13:15.858Z,17
2024-04-30T01:13:46.913Z,17
2024-04-30T01:14:17.880Z,17
2024-04-30T01:14:49.108Z,17
2024-04-30T01:15:22.295Z,17
2024-04-30T01:15:50.907Z,17
2024-04-30T01:16:21.923Z,17
2024-04-30T01:16:52.845Z,17
2024-04-30T01:17:24.055Z,17
2024-04-30T01:17:54.845Z,16
2024-04-30T01:18:25.952Z,17
2024-04-30T01:18:56.895Z,17
2024-04-30T01:19:27.894Z,16
2024-04-30T01:19:58.874Z,16
2024-04-30T01:20:30.298Z,16
2024-04-30T01:21:00.949Z,16
2024-04-30T01:21:31.835Z,16
2024-04-30T01:22:02.891Z,16
2024-04-30T01:22:34.109Z,16
2024-04-30T01:23:04.879Z,16
2024-04-30T01:23:36.096Z,16
2024-04-30T01:24:06.859Z,16
2024-04-30T01:24:37.844Z,16
2024-04-30T01:25:09.142Z,16
2024-04-30T01:25:39.896Z,16
2024-04-30T01:26:10.869Z,16
2024-04-30T01:26:41.861Z,16
2024-04-30T01:27:12.888Z,16
2024-04-30T01:27:43.852Z,16
2024-04-30T01:28:14.850Z,16
2024-04-30T01:28:45.884Z,16
2024-04-30T01:29:16.897Z,16
2024-04-30T01:29:47.837Z,16
2024-04-30T01:30:19.634Z,16
2024-04-30T01:30:49.877Z,16
2024-04-30T01:31:20.974Z,16
2024-04-30T01:31:51.824Z,16
2024-04-30T01:32:23.358Z,16
2024-04-30T01:32:54.068Z,16
2024-04-30T01:33:24.884Z,16
2024-04-30T01:33:55.829Z,16
2024-04-30T01:34:26.928Z,16
2024-04-30T01:34:57.858Z,16
2024-04-30T01:35:29.658Z,16
2024-04-30T01:35:59.863Z,16
2024-04-30T01:36:31.808Z,16
2024-04-30T01:37:01.896Z,16
2024-04-30T01:37:33.108Z,16
2024-04-30T01:38:03.927Z,16
2024-04-30T01:38:34.792Z,16
2024-04-30T01:39:05.891Z,16
2024-04-30T01:39:36.888Z,16
2024-04-30T01:40:08.222Z,16
2024-04-30T01:40:39.157Z,16
2024-04-30T01:41:10.221Z,16
2024-04-30T01:41:43.971Z,16
2024-04-30T01:42:12.228Z,16
2024-04-30T01:42:42.904Z,16
2024-04-30T01:43:13.882Z,16
2024-04-30T01:43:44.872Z,16
2024-04-30T01:44:15.830Z,16
2024-04-30T01:44:47.009Z,16
2024-04-30T01:45:18.454Z,16
2024-04-30T01:45:48.965Z,16
2024-04-30T01:46:19.913Z,16
2024-04-30T01:46:50.873Z,16
2024-04-30T01:47:21.990Z,16
2024-04-30T01:47:53.060Z,16
2024-04-30T01:48:24.254Z,16
2024-04-30T01:48:54.981Z,16
2024-04-30T01:49:26.093Z,16
2024-04-30T01:49:57.257Z,16
2024-04-30T01:50:28.137Z,16
2024-04-30T01:50:58.907Z,16
2024-04-30T01:51:29.973Z,16
2024-04-30T01:52:01.066Z,16
2024-04-30T01:52:32.006Z,16
2024-04-30T01:53:03.148Z,16
2024-04-30T01:53:33.948Z,16
2024-04-30T01:54:04.919Z,16
2024-04-30T01:54:35.935Z,16
2024-04-30T01:55:07.298Z,16
2024-04-30T01:55:37.930Z,16
2024-04-30T01:56:08.967Z,16
2024-04-30T01:56:40.011Z,16
2024-04-30T01:57:10.935Z,16
2024-04-30T01:57:41.986Z,16
2024-04-30T01:58:13.014Z,16
2024-04-30T01:58:44.287Z,16
2024-04-30T01:59:14.951Z,16
2024-04-30T01:59:46.374Z,16
2024-04-30T02:00:18.401Z,16
2024-04-30T02:00:48.411Z,16
2024-04-30T02:01:19.417Z,16
2024-04-30T02:01:50.406Z,16
2024-04-30T02:02:21.401Z,16
2024-04-30T02:02:52.375Z,16
2024-04-30T02:03:23.373Z,16
2024-04-30T02:03:54.690Z,16
2024-04-30T02:04:25.873Z,16
2024-04-30T02:04:56.767Z,16
2024-04-30T02:05:28.226Z,16
2024-04-30T02:05:58.918Z,16
2024-04-30T02:06:29.698Z,16
2024-04-30T02:07:00.666Z,16
2024-04-30T02:07:32.124Z,16
2024-04-30T02:08:04.923Z,16
2024-04-30T02:08:33.655Z,16
2024-04-30T02:09:04.591Z,16
2024-04-30T02:09:35.638Z,16
2024-04-30T02:10:06.969Z,16
2024-04-30T02:10:37.733Z,16
2024-04-30T02:11:08.744Z,16
2024-04-30T02:11:39.652Z,16
2024-04-30T02:12:10.725Z,16
2024-04-30T02:12:41.635Z,16
2024-04-30T02:13:12.675Z,16
2024-04-30T02:13:43.671Z,16
2024-04-30T02:14:14.638Z,16
2024-04-30T02:14:45.593Z,16
2024-04-30T02:15:17.219Z,16
2024-04-30T02:15:47.812Z,16
2024-04-30T02:16:18.943Z,16
2024-04-30T02:16:49.917Z,16
2024-04-30T02:17:20.615Z,16
2024-04-30T02:17:51.625Z,16
2024-04-30T02:18:22.673Z,16
2024-04-30T02:18:53.648Z,16
2024-04-30T02:19:24.698Z,16
2024-04-30T02:19:55.611Z,16
2024-04-30T02:20:27.127Z,16
2024-04-30T02:20:57.947Z,16
2024-04-30T02:21:28.603Z,16
2024-04-30T02:21:59.733Z,16
2024-04-30T02:22:30.718Z,16
2024-04-30T02:23:01.699Z,16
2024-04-30T02:23:32.600Z,16
2024-04-30T02:24:03.637Z,16
2024-04-30T02:24:34.678Z,16
2024-04-30T02:25:06.154Z,16
2024-04-30T02:25:36.682Z,16
2024-04-30T02:26:07.723Z,16
2024-04-30T02:26:38.702Z,16
2024-04-30T02:27:09.652Z,16
2024-04-30T02:27:40.640Z,16
2024-04-30T02:28:11.652Z,16
2024-04-30T02:28:42.598Z,16
2024-04-30T02:29:13.620Z,16
2024-04-30T02:29:44.589Z,16
2024-04-30T02:30:16.378Z,16
2024-04-30T02:30:46.891Z,16
2024-04-30T02:31:17.640Z,16
2024-04-30T02:31:48.643Z,16
2024-04-30T02:32:19.625Z,16
2024-04-30T02:32:50.926Z,16
2024-04-30T02:33:21.633Z,16
2024-04-30T02:33:53.193Z,16
2024-04-30T02:34:23.855Z,16
2024-04-30T02:34:54.629Z,16
2024-04-30T02:35:26.068Z,16
2024-04-30T02:35:57.066Z,16
2024-04-30T02:36:27.647Z,16
2024-04-30T02:36:58.712Z,16
2024-04-30T02:37:29.692Z,16
2024-04-30T02:38:00.606Z,16
2024-04-30T02:38:31.653Z,16
2024-04-30T02:39:02.591Z,16
2024-04-30T02:39:34.643Z,16
2024-04-30T02:40:04.870Z,16
2024-04-30T02:40:36.429Z,16
2024-04-30T02:41:06.674Z,16
2024-04-30T02:41:37.656Z,16
2024-04-30T02:42:08.654Z,16
2024-04-30T02:42:40.007Z,16
2024-04-30T02:43:10.681Z,16
2024-04-30T02:43:41.672Z,16
2024-04-30T02:44:12.683Z,16
2024-04-30T02:44:43.653Z,16
2024-04-30T02:45:16.336Z,16
2024-04-30T02:45:45.902Z,16
2024-04-30T02:46:16.710Z,16
2024-04-30T02:46:47.700Z,16
2024-04-30T02:47:18.685Z,16
2024-04-30T02:47:49.665Z,16
2024-04-30T02:48:20.641Z,16
2024-04-30T02:48:51.649Z,16
2024-04-30T02:49:22.806Z,16
2024-04-30T02:49:53.627Z,16
2024-04-30T02:50:25.325Z,16
2024-04-30T02:50:55.900Z,16
2024-04-30T02:51:26.926Z,16
2024-04-30T02:51:57.673Z,16
2024-04-30T02:52:28.679Z,16
2024-04-30T02:52:59.672Z,16
2024-04-30T02:53:30.624Z,16
2024-04-30T02:54:01.670Z,16
2024-04-30T02:54:32.619Z,16
2024-04-30T02:55:03.794Z,16
2024-04-30T02:55:34.720Z,16
2024-04-30T02:56:05.659Z,16
2024-04-30T02:56:36.632Z,16
2024-04-30T02:57:07.626Z,16
2024-04-30T02:57:38.621Z,16
2024-04-30T02:58:09.610Z,16
2024-04-30T02:58:40.629Z,16
2024-04-30T02:59:11.589Z,16
2024-04-30T02:59:41.823Z,16
2024-04-30T03:00:14.087Z,16
2024-04-30T03:00:43.962Z,16
2024-04-30T03:01:14.952Z,16
2024-04-30T03:01:46.016Z,16
2024-04-30T03:02:16.906Z,16
2024-04-30T03:02:47.870Z,16
2024-04-30T03:03:18.839Z,16
2024-04-30T03:03:50.153Z,16
2024-04-30T03:04:21.280Z,16
2024-04-30T03:04:52.286Z,16
2024-04-30T03:05:23.597Z,16
2024-04-30T03:05:54.223Z,16
2024-04-30T03:06:25.183Z,16
2024-04-30T03:06:56.211Z,16
2024-04-30T03:07:27.266Z,16
2024-04-30T03:07:58.127Z,16
2024-04-30T03:08:29.413Z,16
2024-04-30T03:09:00.467Z,16
2024-04-30T03:09:31.179Z,16
2024-04-30T03:10:02.300Z,16
2024-04-30T03:10:33.292Z,16
2024-04-30T03:11:05.264Z,16
2024-04-30T03:11:35.214Z,16
2024-04-30T03:12:06.208Z,16
2024-04-30T03:12:37.181Z,16
2024-04-30T03:13:08.224Z,16
2024-04-30T03:13:39.257Z,16
2024-04-30T03:14:10.224Z,16
2024-04-30T03:14:41.214Z,16
2024-04-30T03:15:15.450Z,16
2024-04-30T03:15:43.146Z,16
2024-04-30T03:16:14.186Z,16
2024-04-30T03:16:45.250Z,16
2024-04-30T03:17:16.363Z,16
2024-04-30T03:17:47.722Z,16
2024-04-30T03:18:18.193Z,16
2024-04-30T03:18:49.273Z,16
2024-04-30T03:19:20.241Z,16
2024-04-30T03:19:51.180Z,16
2024-04-30T03:20:22.431Z,16
2024-04-30T03:20:53.169Z,16
2024-04-30T03:21:24.164Z,16
2024-04-30T03:21:55.195Z,16
2024-04-30T03:22:26.108Z,16
2024-04-30T03:22:57.217Z,16
2024-04-30T03:23:28.161Z,16
2024-04-30T03:23:59.436Z,16
2024-04-30T03:24:30.234Z,16
2024-04-30T03:25:01.655Z,16
2024-04-30T03:25:32.330Z,16
2024-04-30T03:26:03.200Z,16
2024-04-30T03:26:34.847Z,16
2024-04-30T03:27:05.182Z,16
2024-04-30T03:27:36.221Z,16
2024-04-30T03:28:07.270Z,16
2024-04-30T03:28:38.261Z,16
2024-04-30T03:29:09.443Z,16
2024-04-30T03:29:40.172Z,16
2024-04-30T03:30:12.414Z,16
2024-04-30T03:30:42.194Z,16
2024-04-30T03:31:13.246Z,16
2024-04-30T03:31:44.200Z,16
2024-04-30T03:32:15.249Z,16
2024-04-30T03:32:46.318Z,16
2024-04-30T03:33:17.302Z,16
2024-04-30T03:33:48.207Z,16
2024-04-30T03:34:19.456Z,16
2024-04-30T03:34:50.209Z,16
2024-04-30T03:35:27.355Z,16
2024-04-30T03:35:52.286Z,16
2024-04-30T03:36:23.528Z,16
2024-04-30T03:36:54.182Z,16
2024-04-30T03:37:25.221Z,16
2024-04-30T03:37:56.207Z,16
2024-04-30T03:38:27.201Z,16
2024-04-30T03:38:58.132Z,16
2024-04-30T03:39:29.233Z,16
2024-04-30T03:40:00.318Z,16
2024-04-30T03:40:31.719Z,16
2024-04-30T03:41:02.141Z,16
2024-04-30T03:41:33.168Z,16
2024-04-30T03:42:04.197Z,16
2024-04-30T03:42:36.197Z,16
2024-04-30T03:43:06.237Z,16
2024-04-30T03:43:37.436Z,16
2024-04-30T03:44:08.483Z,16
2024-04-30T03:44:39.396Z,16
2024-04-30T03:45:10.667Z,16
2024-04-30T03:45:41.192Z,16
2024-04-30T03:46:12.234Z,16
2024-04-30T03:46:43.336Z,16
2024-04-30T03:47:14.247Z,16
2024-04-30T03:47:45.281Z,16
2024-04-30T03:48:16.578Z,16
2024-04-30T03:48:47.271Z,16
2024-04-30T03:49:18.258Z,16
2024-04-30T03:49:49.288Z,16
2024-04-30T03:50:20.793Z,16
2024-04-30T03:50:51.273Z,16
2024-04-30T03:51:22.211Z,1
2024-04-30T03:51:53.192Z,4
2024-04-30T03:52:24.271Z,4
2024-04-30T03:52:55.484Z,4
2024-04-30T03:53:26.218Z,4
2024-04-30T03:53:57.239Z,4
2024-04-30T03:54:28.258Z,4
2024-04-30T03:54:59.246Z,4
2024-04-30T03:55:31.028Z,4
2024-04-30T03:56:01.213Z,4
2024-04-30T03:56:32.276Z,4
2024-04-30T03:57:03.295Z,4
2024-04-30T03:57:34.241Z,4
2024-04-30T03:58:05.295Z,4
2024-04-30T03:58:36.261Z,4
2024-04-30T03:59:07.517Z,4
2024-04-30T03:59:37.827Z,4
2024-04-30T04:00:09.482Z,4
2024-04-30T04:00:39.955Z,4
2024-04-30T04:01:10.959Z,4
2024-04-30T04:01:42.196Z,4
2024-04-30T04:02:12.835Z,4
2024-04-30T04:02:43.931Z,4
2024-04-30T04:03:14.886Z,4
2024-04-30T04:03:46.188Z,4
2024-04-30T04:04:17.244Z,4
2024-04-30T04:04:48.101Z,4
2024-04-30T04:05:20.953Z,4
2024-04-30T04:05:50.243Z,4
2024-04-30T04:06:21.224Z,4
2024-04-30T04:06:52.251Z,4
2024-04-30T04:07:23.232Z,4
2024-04-30T04:07:54.333Z,4
2024-04-30T04:08:25.212Z,4
2024-04-30T04:08:56.134Z,4
2024-04-30T04:09:27.205Z,4
2024-04-30T04:09:58.147Z,4
2024-04-30T04:10:29.839Z,4
2024-04-30T04:11:00.211Z,4
2024-04-30T04:11:31.160Z,4
2024-04-30T04:12:02.268Z,4
2024-04-30T04:12:33.121Z,4
2024-04-30T04:13:04.217Z,4
2024-04-30T04:13:35.208Z,4
2024-04-30T04:14:07.094Z,4
2024-04-30T04:14:37.192Z,4
2024-04-30T04:15:08.615Z,4
2024-04-30T04:15:39.231Z,4
2024-04-30T04:16:10.559Z,4
2024-04-30T04:16:41.294Z,4
2024-04-30T04:17:12.277Z,4
2024-04-30T04:17:43.261Z,4
2024-04-30T04:18:14.519Z,4
2024-04-30T04:18:45.205Z,4
2024-04-30T04:19:16.544Z,4
2024-04-30T04:19:47.179Z,4
2024-04-30T04:20:27.659Z,4
2024-04-30T04:20:49.177Z,4
2024-04-30T04:21:22.553Z,4
2024-04-30T04:21:51.194Z,4
2024-04-30T04:22:22.661Z,4
2024-04-30T04:22:53.183Z,4
2024-04-30T04:23:24.155Z,4
2024-04-30T04:23:55.091Z,4
2024-04-30T04:24:26.221Z,4
2024-04-30T04:24:57.168Z,4
2024-04-30T04:25:28.479Z,4
2024-04-30T04:25:59.122Z,4
2024-04-30T04:26:30.194Z,4
2024-04-30T04:27:01.128Z,4
2024-04-30T04:27:32.401Z,4
2024-04-30T04:28:03.379Z,4
2024-04-30T04:28:34.303Z,4
2024-04-30T04:29:05.184Z,4
2024-04-30T04:29:36.198Z,4
2024-04-30T04:30:07.624Z,4
2024-04-30T04:30:38.304Z,4
2024-04-30T04:31:09.198Z,4
2024-04-30T04:31:40.275Z,4
2024-04-30T04:32:11.211Z,4
2024-04-30T04:32:42.539Z,4
2024-04-30T04:33:13.230Z,4
2024-04-30T04:33:44.205Z,4
2024-04-30T04:34:15.283Z,4
2024-04-30T04:34:46.178Z,4
2024-04-30T04:35:17.394Z,4
2024-04-30T04:35:48.132Z,4
2024-04-30T04:36:19.503Z,4
2024-04-30T04:36:50.444Z,4
2024-04-30T04:37:22.426Z,4
2024-04-30T04:37:52.481Z,4
2024-04-30T04:38:23.171Z,4
2024-04-30T04:38:54.210Z,4
2024-04-30T04:39:25.266Z,4
2024-04-30T04:39:56.190Z,4
2024-04-30T04:40:27.652Z,4
2024-04-30T04:40:58.153Z,4
2024-04-30T04:41:29.142Z,4
2024-04-30T04:42:00.178Z,4
2024-04-30T04:42:31.235Z,4
2024-04-30T04:43:02.300Z,4
2024-04-30T04:43:33.532Z,4
2024-04-30T04:44:04.197Z,4
2024-04-30T04:44:35.192Z,4
2024-04-30T04:45:06.696Z,4
2024-04-30T04:45:38.354Z,4
2024-04-30T04:46:08.278Z,4
2024-04-30T04:46:39.200Z,4
2024-04-30T04:47:10.319Z,4
2024-04-30T04:47:41.193Z,4
2024-04-30T04:48:12.511Z,4
2024-04-30T04:48:43.689Z,4
2024-04-30T04:49:14.226Z,4
2024-04-30T04:49:45.157Z,4
2024-04-30T04:50:16.491Z,4
2024-04-30T04:50:47.170Z,4
2024-04-30T04:51:18.187Z,4
2024-04-30T04:51:49.180Z,4
2024-04-30T04:52:20.231Z,4
2024-04-30T04:52:51.164Z,4
2024-04-30T04:53:22.173Z,4
2024-04-30T04:53:53.638Z,4
2024-04-30T04:54:24.703Z,4
2024-04-30T04:54:55.144Z,4
2024-04-30T04:55:26.421Z,4
2024-04-30T04:55:57.218Z,4
2024-04-30T04:56:28.159Z,4
2024-04-30T04:56:59.214Z,4
2024-04-30T04:57:30.191Z,4
2024-04-30T04:58:01.225Z,4
2024-04-30T04:58:32.243Z,4
2024-04-30T04:59:03.246Z,4
2024-04-30T04:59:34.313Z,4
2024-04-30T05:00:05.826Z,4
2024-04-30T05:00:36.409Z,4
2024-04-30T05:01:09.574Z,4
2024-04-30T05:01:38.363Z,4
2024-04-30T05:02:09.377Z,4
2024-04-30T05:02:40.336Z,4
2024-04-30T05:03:11.611Z,4
2024-04-30T05:03:42.503Z,4
2024-04-30T05:04:13.694Z,4
2024-04-30T05:04:44.585Z,4
2024-04-30T05:05:15.921Z,4
2024-04-30T05:05:46.523Z,4
2024-04-30T05:06:17.662Z,4
2024-04-30T05:06:48.557Z,4
2024-04-30T05:07:19.561Z,4
2024-04-30T05:07:50.695Z,4
2024-04-30T05:08:21.574Z,4
2024-04-30T05:08:52.806Z,4
2024-04-30T05:09:23.519Z,4
2024-04-30T05:09:54.554Z,4
2024-04-30T05:10:26.040Z,4
2024-04-30T05:10:56.663Z,4
2024-04-30T05:11:27.666Z,4
2024-04-30T05:11:58.840Z,4
2024-04-30T05:12:29.483Z,4
2024-04-30T05:13:00.584Z,4
2024-04-30T05:13:31.671Z,4
2024-04-30T05:14:02.789Z,4
2024-04-30T05:14:33.523Z,4
2024-04-30T05:15:05.112Z,4
2024-04-30T05:15:35.595Z,4
2024-04-30T05:16:06.604Z,4
2024-04-30T05:16:37.747Z,4
2024-04-30T05:17:09.545Z,4
2024-04-30T05:17:39.642Z,4
2024-04-30T05:18:10.800Z,4
2024-04-30T05:18:41.600Z,4
2024-04-30T05:19:12.592Z,4
2024-04-30T05:19:43.587Z,4
2024-04-30T05:20:15.254Z,4
2024-04-30T05:20:45.800Z,4
2024-04-30T05:21:16.562Z,4
2024-04-30T05:21:47.640Z,4
2024-04-30T05:22:18.603Z,4
2024-04-30T05:22:49.520Z,4
2024-04-30T05:23:20.546Z,4
2024-04-30T05:23:51.628Z,4
2024-04-30T05:24:22.602Z,4
2024-04-30T05:24:53.538Z,4
2024-04-30T05:25:24.855Z,4
2024-04-30T05:25:55.515Z,4
2024-04-30T05:26:26.768Z,4
2024-04-30T05:26:57.571Z,4
2024-04-30T05:27:28.823Z,4
2024-04-30T05:27:59.537Z,4
2024-04-30T05:28:30.822Z,4
2024-04-30T05:29:01.601Z,4
2024-04-30T05:29:32.898Z,4
2024-04-30T05:30:04.000Z,4
2024-04-30T05:30:34.570Z,4
2024-04-30T05:31:05.630Z,4
2024-04-30T05:31:36.621Z,4
2024-04-30T05:32:07.952Z,4
2024-04-30T05:32:38.680Z,4
2024-04-30T05:33:09.708Z,4
2024-04-30T05:33:40.633Z,4
2024-04-30T05:34:11.583Z,4
2024-04-30T05:34:42.632Z,4
2024-04-30T05:35:13.998Z,4
2024-04-30T05:35:44.591Z,4
2024-04-30T05:36:16.447Z,4
2024-04-30T05:36:46.806Z,4
2024-04-30T05:37:17.633Z,4
2024-04-30T05:37:48.597Z,4
2024-04-30T05:38:19.878Z,4
2024-04-30T05:38:50.585Z,4
2024-04-30T05:39:21.545Z,4
2024-04-30T05:39:52.581Z,4
2024-04-30T05:40:23.947Z,4
2024-04-30T05:40:54.644Z,4
2024-04-30T05:41:25.516Z,4
2024-04-30T05:41:56.660Z,4
2024-04-30T05:42:27.545Z,4
2024-04-30T05:42:58.818Z,4
2024-04-30T05:43:29.606Z,4
2024-04-30T05:44:00.545Z,4
2024-04-30T05:44:31.545Z,4
2024-04-30T05:45:02.986Z,4
2024-04-30T05:45:33.581Z,4
2024-04-30T05:46:04.682Z,4
2024-04-30T05:46:35.721Z,4
2024-04-30T05:47:07.136Z,4
2024-04-30T05:47:37.592Z,4
2024-04-30T05:48:08.856Z,4
2024-04-30T05:48:40.802Z,4
2024-04-30T05:49:10.653Z,4
2024-04-30T05:49:41.605Z,4
2024-04-30T05:50:12.820Z,4
2024-04-30T05:50:43.579Z,4
2024-04-30T05:51:14.576Z,4
2024-04-30T05:51:45.639Z,4
2024-04-30T05:52:16.644Z,4
2024-04-30T05:52:47.659Z,4
2024-04-30T05:53:18.758Z,4
2024-04-30T05:53:51.591Z,4
2024-04-30T05:54:20.584Z,4
2024-04-30T05:54:51.599Z,4
2024-04-30T05:55:23.003Z,4
2024-04-30T05:55:53.849Z,4
2024-04-30T05:56:24.575Z,4
2024-04-30T05:56:55.598Z,4
2024-04-30T05:57:26.575Z,4
2024-04-30T05:57:57.613Z,4
2024-04-30T05:58:28.838Z,4
2024-04-30T05:58:59.561Z,4
2024-04-30T05:59:30.196Z,4
2024-04-30T06:00:01.606Z,4
2024-04-30T06:00:32.320Z,4
2024-04-30T06:01:03.234Z,4
2024-04-30T06:01:34.217Z,4
2024-04-30T06:02:05.165Z,4
2024-04-30T06:02:36.199Z,4
2024-04-30T06:03:07.210Z,4
2024-04-30T06:03:38.509Z,4
2024-04-30T06:04:09.544Z,4
2024-04-30T06:04:40.931Z,4
2024-04-30T06:05:12.451Z,4
2024-04-30T06:05:42.543Z,4
2024-04-30T06:06:13.905Z,4
2024-04-30T06:06:44.440Z,4
2024-04-30T06:07:15.497Z,4
2024-04-30T06:07:46.563Z,4
2024-04-30T06:08:17.493Z,4
2024-04-30T06:08:48.515Z,4
2024-04-30T06:09:19.483Z,4
2024-04-30T06:09:50.533Z,4
2024-04-30T06:10:22.449Z,4
2024-04-30T06:10:52.666Z,4
2024-04-30T06:11:23.442Z,4
2024-04-30T06:11:54.471Z,4
2024-04-30T06:12:25.505Z,4
2024-04-30T06:12:56.522Z,4
2024-04-30T06:13:27.856Z,4
2024-04-30T06:13:58.538Z,4
2024-04-30T06:14:29.467Z,4
2024-04-30T06:15:01.344Z,4
2024-04-30T06:15:31.567Z,4
2024-04-30T06:16:02.576Z,4
2024-04-30T06:16:33.598Z,4
2024-04-30T06:17:04.512Z,4
2024-04-30T06:17:35.554Z,4
2024-04-30T06:18:06.599Z,4
2024-04-30T06:18:37.618Z,4
2024-04-30T06:19:08.512Z,4
2024-04-30T06:19:39.728Z,4
2024-04-30T06:20:11.680Z,4
2024-04-30T06:20:41.563Z,4
2024-04-30T06:21:14.285Z,4
2024-04-30T06:21:45.259Z,4
2024-04-30T06:22:14.787Z,4
2024-04-30T06:22:45.568Z,3
2024-04-30T06:23:16.509Z,3
2024-04-30T06:23:47.807Z,3
2024-04-30T06:24:18.469Z,3
2024-04-30T06:24:49.492Z,3
2024-04-30T06:25:21.007Z,3
2024-04-30T06:25:51.532Z,3
2024-04-30T06:26:22.510Z,3
2024-04-30T06:26:53.535Z,3
2024-04-30T06:27:24.481Z,3
2024-04-30T06:27:55.529Z,318
2024-04-30T06:28:26.792Z,318
2024-04-30T06:28:57.517Z,318
2024-04-30T06:29:28.459Z,318
2024-04-30T06:29:59.529Z,318
2024-04-30T06:30:31.222Z,318
2024-04-30T06:31:01.871Z,318
2024-04-30T06:31:32.529Z,318
2024-04-30T06:32:03.504Z,318
2024-04-30T06:32:34.619Z,318
2024-04-30T06:33:05.577Z,318
2024-04-30T06:33:36.782Z,318
2024-04-30T06:34:07.554Z,318
2024-04-30T06:34:41.016Z,318
2024-04-30T06:35:09.776Z,318
2024-04-30T06:35:40.493Z,318
2024-04-30T06:36:11.777Z,318
2024-04-30T06:36:42.602Z,318
2024-04-30T06:37:13.540Z,318
2024-04-30T06:37:44.552Z,318
2024-04-30T06:38:15.522Z,318
2024-04-30T06:38:46.520Z,318
2024-04-30T06:39:17.497Z,318
2024-04-30T06:39:48.813Z,318
2024-04-30T06:40:20.043Z,317
2024-04-30T06:40:50.572Z,317
2024-04-30T06:41:21.512Z,317
2024-04-30T06:41:52.646Z,317
2024-04-30T06:42:23.535Z,317
2024-04-30T06:42:54.486Z,317
2024-04-30T06:43:25.485Z,317
2024-04-30T06:43:56.520Z,317
2024-04-30T06:44:27.522Z,317
2024-04-30T06:44:58.482Z,317
2024-04-30T06:45:30.035Z,317
2024-04-30T06:46:00.543Z,317
2024-04-30T06:46:31.576Z,317
2024-04-30T06:47:02.576Z,317
2024-04-30T06:47:33.564Z,317
2024-04-30T06:48:04.643Z,317
2024-04-30T06:48:36.174Z,317
2024-04-30T06:49:06.520Z,317
2024-04-30T06:49:37.561Z,317
2024-04-30T06:50:08.829Z,317
2024-04-30T06:50:39.786Z,317
2024-04-30T06:51:10.627Z,317
2024-04-30T06:51:42.672Z,317
2024-04-30T06:52:12.650Z,317
2024-04-30T06:52:43.626Z,317
2024-04-30T06:53:14.531Z,317
2024-04-30T06:53:45.618Z,317
2024-04-30T06:54:17.005Z,317
2024-04-30T06:54:47.567Z,317
2024-04-30T06:55:19.008Z,317
2024-04-30T06:55:50.346Z,317
2024-04-30T06:56:20.546Z,317
2024-04-30T06:56:51.621Z,317
2024-04-30T06:57:22.823Z,317
2024-04-30T06:57:53.805Z,317
2024-04-30T06:58:24.637Z,317
2024-04-30T06:58:55.620Z,317
2024-04-30T06:59:26.578Z,317
2024-04-30T06:59:57.313Z,317
2024-04-30T07:00:29.213Z,317
2024-04-30T07:00:59.390Z,317
2024-04-30T07:01:30.383Z,317
2024-04-30T07:02:01.329Z,317
2024-04-30T07:02:32.419Z,317
2024-04-30T07:03:03.526Z,316
2024-04-30T07:03:34.297Z,317
2024-04-30T07:04:05.828Z,261
2024-04-30T07:04:36.683Z,261
2024-04-30T07:05:07.924Z,261
2024-04-30T07:05:38.607Z,261
2024-04-30T07:06:10.481Z,260
2024-04-30T07:06:40.590Z,260
2024-04-30T07:07:11.628Z,260
2024-04-30T07:07:42.715Z,260
2024-04-30T07:08:13.705Z,260
2024-04-30T07:08:44.588Z,260
2024-04-30T07:09:15.638Z,261
2024-04-30T07:09:46.914Z,261
2024-04-30T07:10:17.963Z,260
2024-04-30T07:10:48.715Z,260
2024-04-30T07:11:19.673Z,260
2024-04-30T07:11:50.628Z,260
2024-04-30T07:12:21.854Z,261
2024-04-30T07:12:52.645Z,260
2024-04-30T07:13:23.669Z,260
2024-04-30T07:13:54.656Z,260
2024-04-30T07:14:25.594Z,260
2024-04-30T07:14:56.864Z,260
2024-04-30T07:15:28.365Z,261
2024-04-30T07:15:58.588Z,260
2024-04-30T07:16:29.634Z,261
2024-04-30T07:17:07.703Z,261
2024-04-30T07:17:31.711Z,261
2024-04-30T07:18:02.749Z,261
2024-04-30T07:18:34.110Z,261
2024-04-30T07:19:04.621Z,261
2024-04-30T07:19:35.835Z,246
2024-04-30T07:20:07.096Z,246
2024-04-30T07:20:37.649Z,246
2024-04-30T07:21:08.616Z,246
2024-04-30T07:21:39.649Z,246
2024-04-30T07:22:10.632Z,246
2024-04-30T07:22:41.718Z,246
2024-04-30T07:23:13.687Z,246
2024-04-30T07:23:44.014Z,246
2024-04-30T07:24:14.642Z,246
2024-04-30T07:24:46.033Z,246
2024-04-30T07:25:16.844Z,246
2024-04-30T07:25:47.622Z,246